• Join FlightAware (Why Join?)
  • Login
  • US Flag 
09:06PM EDT


 

Airport Tracker/Info


-or-


 

Live Flight TrackerFlight Track Log ✈ DAL2033 ✈ 18-Jul-2013 ✈ KALB - KATL

Flight Track Log - Related Links

Times and Time Zones

All times are in EDT time to prevent confusion due to time zone crossing. See the DAL2033 flight status page for this flight to view local times or setup timezone preferences in your user account.

Time Position Orientation Groundspeed Altitude Reporting Facility
EDT Latitude Longitude Course Direction KTS MPH feet Rate Location/Type
07:03PM 42.7694 -73.8089 332° Northwest 169 194 1,300  Level Boston Center
07:04PM 42.8458 -73.8644 332° Northwest 219 252 4,600 2,100 Climbing Boston Center
07:05PM 42.8703 -73.8992 314° West 222 255 5,900 2,340 Climbing Boston Center
07:06PM 42.9072 -73.9622 309° West 222 255 8,500 2,040 Climbing Boston Center
07:07PM 42.9478 -74.0258 311° West 222 255 10,000 1,440 Climbing Boston Center
07:08PM 42.9967 -74.1122 308° West 265 305 11,400 1,920 Climbing Boston Center
07:09PM 43.0369 -74.2097 299° West 295 339 13,900 2,280 Climbing Boston Center
07:10PM 42.9669 -74.2817 217° Southwest 256 295 16,000 1,800 Climbing Boston Center
07:11PM 42.8672 -74.2617 172° South 279 321 17,500 1,200 Climbing Boston Center
07:12PM 42.7492 -74.2186 165° South 390 449 18,500 1,680 Climbing Boston Center
07:13PM 42.6308 -74.1783 166° South 420 483 20,900 1,680 Climbing Boston Center
07:14PM 42.5086 -74.1356 166° South 435 501 21,900 1,020 Climbing Boston Center
07:15PM 42.3800 -74.0900 165° South 457 526 23,000 1,200 Climbing Boston Center
07:16PM 42.2472 -74.0444 166° South 476 548 24,400 1,500 Climbing Boston Center
07:17PM 42.1139 -74.0578 184° South 483 556 26,000 900 Climbing Boston Center
07:18PM 42.0039 -74.1500 212° Southwest 450 518 26,300 900 Climbing Boston Center
07:19PM 41.8761 -74.1994 196° South 463 533 27,900 1,500 Climbing Boston Center
07:21PM 41.6392 -74.1797 176° South 485 558 30,700 1,320 Climbing New York Center
07:22PM 41.5108 -74.1536 171° South 473 544 31,900 960 Climbing New York Center
07:23PM 41.3822 -74.1361 174° South 473 544 32,700 660 Climbing New York Center
07:24PM 41.2531 -74.1381 181° South 468 539 33,300 600 Climbing New York Center
07:25PM 41.1417 -74.2508 217° Southwest 444 511 34,000 300 Climbing New York Center
07:26PM 41.0567 -74.3758 228° Southwest 440 506 34,000  Level New York Center
07:27PM 40.9694 -74.5003 227° Southwest 451 519 34,000  Level New York Center
07:28PM 40.8819 -74.6300 228° Southwest 469 540 34,000 -60 Level New York Center
07:29PM 40.7922 -74.7564 227° Southwest 475 547 33,900  Descending New York Center
07:30PM 40.7025 -74.8797 226° Southwest 475 547 34,000  Climbing New York Center
07:31PM 40.6169 -75.0031 228° Southwest 475 547 34,000  Level New York Center
07:32PM 40.5311 -75.1261 227° Southwest 475 547 34,000  Level New York Center
07:33PM 40.4433 -75.2489 227° Southwest 475 547 34,000  Level New York Center
07:34PM 40.3594 -75.3686 227° Southwest 470 541 34,000  Level New York Center
07:35PM 40.2756 -75.4883 227° Southwest 464 534 34,000  Level New York Center
07:36PM 40.2022 -75.6028 230° Southwest 459 528 34,000  Level New York Center
07:37PM 40.1300 -75.7364 235° Southwest 454 522 34,000  Level New York Center
07:38PM 40.0475 -75.8581 228° Southwest 454 522 34,000  Level New York Center
07:39PM 39.9650 -75.9819 229° Southwest 454 522 34,000  Level New York Center
07:40PM 39.8825 -76.1031 228° Southwest 460 529 34,000  Level New York Center
07:41PM 39.7867 -76.2389 227° Southwest 469 540 34,000  Level New York Center
07:42PM 39.7036 -76.3619 229° Southwest 469 540 34,000  Level New York Center
07:43PM 39.6186 -76.4847 228° Southwest 464 534 34,000  Level New York Center
07:44PM 39.5311 -76.6094 228° Southwest 469 540 34,000  Level New York Center
07:45PM 39.4078 -76.7842 228° Southwest 468 539 34,000  Level Washington Center
07:46PM 39.3231 -76.9061 228° Southwest 461 531 34,000  Level Washington Center
07:47PM 39.2361 -77.0278 227° Southwest 461 531 34,000  Level Washington Center
07:48PM 39.1514 -77.1467 227° Southwest 461 531 34,000  Level Washington Center
07:49PM 39.0664 -77.2678 228° Southwest 461 531 34,000  Level Washington Center
07:50PM 38.9792 -77.3886 227° Southwest 461 531 34,000  Level Washington Center
07:51PM 38.8942 -77.5039 227° Southwest 461 531 34,000  Level Washington Center
07:52PM 38.8217 -77.6006 226° Southwest 471 542 34,000  Level Washington Center
07:53PM 38.7275 -77.7392 229° Southwest 476 548 34,000  Level Washington Center
07:54PM 38.6419 -77.8617 228° Southwest 471 542 34,000  Level Washington Center
07:55PM 38.5683 -77.9894 234° Southwest 465 535 34,000  Level Washington Center
07:56PM 38.4908 -78.1197 233° Southwest 465 535 34,000  Level Washington Center
07:57PM 38.4169 -78.2469 233° Southwest 460 529 34,000  Level Washington Center
07:58PM 38.3411 -78.3767 233° Southwest 460 529 34,000  Level Washington Center
07:59PM 38.2653 -78.5033 233° Southwest 460 529 34,000  Level Washington Center
08:00PM 38.1953 -78.6275 234° Southwest 454 522 34,000  Level Washington Center
08:01PM 38.1083 -78.7692 232° Southwest 454 522 34,000  Level Washington Center
08:02PM 38.0319 -78.8978 233° Southwest 454 522 34,000  Level Washington Center
08:03PM 37.9553 -79.0233 232° Southwest 454 522 34,000  Level Washington Center
08:04PM 37.8833 -79.1333 230° Southwest 459 528 34,000  Level Washington Center
08:05PM 37.7961 -79.2553 228° Southwest 459 528 34,000  Level Washington Center
08:06PM 37.7089 -79.3744 227° Southwest 465 535 34,000  Level Washington Center
08:07PM 37.6131 -79.5061 227° Southwest 471 542 34,000  Level Washington Center
08:08PM 37.5344 -79.6144 228° Southwest 471 542 34,000  Level Washington Center
08:09PM 37.4489 -79.7331 228° Southwest 478 550 34,000  Level Washington Center
08:10PM 37.3569 -79.8561 227° Southwest 483 556 34,000  Level Washington Center
08:11PM 37.2714 -79.9767 228° Southwest 477 549 34,000  Level Washington Center
08:13PM 37.1356 -80.1622 227° Southwest 479 551 34,000  Level Atlanta Center
08:14PM 37.0575 -80.2675 227° Southwest 479 551 34,000  Level Atlanta Center
08:15PM 36.9714 -80.3861 228° Southwest 474 545 34,000  Level Atlanta Center
08:16PM 36.8833 -80.5042 227° Southwest 468 539 34,000  Level Atlanta Center
08:17PM 36.7847 -80.6306 226° Southwest 463 533 34,000  Level Atlanta Center
08:18PM 36.7022 -80.7453 228° Southwest 458 527 34,000  Level Atlanta Center
08:19PM 36.6114 -80.8578 225° Southwest 463 533 34,000  Level Atlanta Center
08:20PM 36.5225 -80.9722 226° Southwest 457 526 34,000  Level Atlanta Center
08:21PM 36.4358 -81.0917 228° Southwest 463 533 34,000  Level Atlanta Center
08:22PM 36.3489 -81.2058 227° Southwest 458 527 34,000  Level Atlanta Center
08:23PM 36.2578 -81.3250 227° Southwest 463 533 34,000  Level Atlanta Center
08:24PM 36.1706 -81.4383 226° Southwest 463 533 34,000  Level Atlanta Center
08:25PM 36.0811 -81.5544 226° Southwest 463 533 34,000  Level Atlanta Center
08:26PM 35.9917 -81.6700 226° Southwest 458 527 34,000  Level Atlanta Center
08:27PM 35.9019 -81.7881 227° Southwest 463 533 34,000  Level Atlanta Center
08:28PM 35.8122 -81.9006 225° Southwest 458 527 34,000  Level Atlanta Center
08:29PM 35.7244 -82.0153 227° Southwest 463 533 34,000  Level Atlanta Center
08:30PM 35.6428 -82.1169 225° Southwest 463 533 34,000  Level Atlanta Center
08:31PM 35.5547 -82.2264 225° Southwest 456 525 34,000 -180 Level Atlanta Center
08:32PM 35.4667 -82.3406 227° Southwest 461 531 33,700 -600 Descending Atlanta Center
08:33PM 35.3742 -82.4469 223° Southwest 461 531 32,800 -900 Descending Atlanta Center
08:34PM 35.2775 -82.5556 223° Southwest 473 544 31,900 -900 Descending Atlanta Center
08:35PM 35.1825 -82.6539 220° Southwest 461 531 31,000 -900 Descending Atlanta Center
08:36PM 35.0897 -82.7594 223° Southwest 461 531 30,100 -840 Descending Atlanta Center
08:37PM 34.9969 -82.8622 222° Southwest 461 531 29,400 -600 Descending Atlanta Center
08:38PM 34.8894 -82.9778 221° Southwest 466 536 28,900 -540 Descending Atlanta Center
08:39PM 34.7922 -83.0828 222° Southwest 466 536 28,400 -540 Descending Atlanta Center
08:40PM 34.6950 -83.1850 221° Southwest 466 536 27,900 -1,020 Descending Atlanta Center
08:41PM 34.5997 -83.2892 222° Southwest 461 531 26,400 -1,920 Descending Atlanta Center
08:42PM 34.5064 -83.3883 221° Southwest 460 529 24,100 -2,100 Descending Atlanta Center
08:43PM 34.4275 -83.4797 224° Southwest 450 518 22,300 -2,160 Descending Atlanta Center
08:44PM 34.3361 -83.5733 220° Southwest 434 499 19,800 -2,340 Descending Atlanta Center
08:45PM 34.2550 -83.6642 223° Southwest 418 481 17,700 -2,220 Descending Atlanta Center
08:46PM 34.1739 -83.7500 221° Southwest 405 466 15,400 -1,860 Descending Atlanta Center
08:47PM 34.0947 -83.8356 222° Southwest 391 450 14,000 -1,200 Descending Atlanta Center
08:48PM 34.0167 -83.9333 226° Southwest 374 430 13,000 -1,020 Descending Atlanta TRACON
08:49PM 33.9333 -84.0167 220° Southwest 367 422 12,000 -540 Descending Atlanta TRACON
08:50PM 33.8500 -84.0833 214° Southwest 368 423 12,000  Level Atlanta TRACON
08:51PM 33.7667 -84.1500 214° Southwest 334 384 12,000  Level Atlanta TRACON
08:52PM 33.7333 -84.2167 239° Southwest 277 319 12,100 -300 Climbing Atlanta TRACON
08:53PM 33.7333 -84.3167 270° West 259 298 11,400 -1,380 Descending Atlanta TRACON
08:54PM 33.7333 -84.4000 270° West 250 288 9,300 -2,220 Descending Atlanta TRACON
08:55PM 33.7333 -84.4833 270° West 241 277 6,800 -2,460 Descending Atlanta TRACON
08:56PM 33.7333 -84.5667 270° West 233 268 4,400 -1,500 Descending Atlanta TRACON
08:57PM 33.7000 -84.6000 220° Southwest 210 242 3,800 -600 Descending Atlanta TRACON